createdAt,value
2019-02-16T00:02:38.856Z,99172.69
2019-02-16T00:06:43.772Z,99173.59
2019-02-16T00:10:48.672Z,99177.94
2019-02-16T00:14:53.564Z,99177.54
2019-02-16T00:18:58.465Z,99171.89
2019-02-16T00:23:03.350Z,99176.67
2019-02-16T00:27:08.247Z,99179.31
2019-02-16T00:31:13.140Z,99177.06
2019-02-16T00:35:18.040Z,99186.23
2019-02-16T00:39:22.931Z,99185.84
2019-02-16T00:43:27.822Z,99180.27
2019-02-16T00:47:32.714Z,99182.50
2019-02-16T00:51:37.639Z,99188.62
2019-02-16T00:55:42.532Z,99186.95
2019-02-16T00:59:47.424Z,99183.08
2019-02-16T01:03:52.318Z,99182.70
2019-02-16T01:07:57.210Z,99172.34
2019-02-16T01:12:02.106Z,99175.03
2019-02-16T01:16:07.010Z,99171.69
2019-02-16T01:20:11.899Z,99176.99
2019-02-16T01:24:16.831Z,99183.16
2019-02-16T01:28:21.679Z,99172.34
2019-02-16T01:32:26.577Z,99175.39
2019-02-16T01:36:31.473Z,99174.95
2019-02-16T01:40:36.365Z,99165.88
2019-02-16T01:44:41.255Z,99167.18
2019-02-16T01:48:46.147Z,99165.02
2019-02-16T01:52:51.039Z,99162.41
2019-02-16T01:56:55.938Z,99165.43
2019-02-16T02:01:00.898Z,99169.34
2019-02-16T02:05:06.725Z,99158.52
2019-02-16T02:09:12.288Z,99155.91
2019-02-16T02:13:17.294Z,99148.97
2019-02-16T02:17:22.187Z,99145.52
2019-02-16T02:21:27.146Z,99135.10
2019-02-16T02:25:32.030Z,99132.97
2019-02-16T02:29:36.927Z,99127.75
2019-02-16T02:33:41.834Z,99124.28
2019-02-16T02:37:46.727Z,99119.11
2019-02-16T02:41:51.630Z,99111.31
2019-02-16T02:45:56.515Z,99111.31
2019-02-16T02:50:01.421Z,99107.86
2019-02-16T02:54:06.311Z,99093.56
2019-02-16T02:58:11.219Z,99094.41
2019-02-16T03:02:16.106Z,99094.42
2019-02-16T03:06:20.993Z,99084.02
2019-02-16T03:10:25.886Z,99086.16
2019-02-16T03:14:30.788Z,99081.84
2019-02-16T03:18:35.675Z,99086.13
2019-02-16T03:23:00.075Z,99087.82
2019-02-16T03:27:10.698Z,99080.89
2019-02-16T03:31:52.933Z,99090.43
2019-02-16T03:36:12.800Z,99093.46
2019-02-16T03:40:17.699Z,99104.31
2019-02-16T03:44:22.595Z,99109.97
2019-02-16T03:48:27.478Z,99106.07
2019-02-16T03:52:32.375Z,99109.98
2019-02-16T03:56:37.279Z,99110.43
2019-02-16T04:00:42.173Z,99117.37
2019-02-16T04:04:47.295Z,99116.08
2019-02-16T04:08:52.225Z,99106.97
2019-02-16T04:12:57.120Z,99101.39
2019-02-16T04:17:02.033Z,99108.32
2019-02-16T04:21:06.927Z,99096.19
2019-02-16T04:25:11.806Z,99094.88
2019-02-16T04:29:16.690Z,99078.87
2019-02-16T04:33:21.577Z,99083.23
2019-02-16T04:37:26.473Z,99078.47
2019-02-16T04:41:31.374Z,99087.98
2019-02-16T04:45:36.268Z,99088.86
2019-02-16T04:49:41.163Z,99086.67
2019-02-16T04:53:46.048Z,99080.15
2019-02-16T04:57:50.943Z,99063.28
2019-02-16T05:01:55.841Z,99063.75
2019-02-16T05:06:00.732Z,99054.66
2019-02-16T05:10:07.049Z,99044.31
2019-02-16T05:14:11.940Z,99042.59
2019-02-16T05:18:16.845Z,99050.80
2019-02-16T05:22:21.811Z,99048.23
2019-02-16T05:26:26.704Z,99075.07
2019-02-16T05:30:31.579Z,99081.97
2019-02-16T05:34:36.474Z,99078.89
2019-02-16T05:38:41.362Z,99081.44
2019-02-16T05:42:46.251Z,99076.14
2019-02-16T05:46:51.157Z,99080.88
2019-02-16T05:50:56.034Z,99084.70
2019-02-16T05:55:00.937Z,99080.79
2019-02-16T05:59:07.966Z,99079.00
2019-02-16T06:03:12.415Z,99069.49
2019-02-16T06:07:17.312Z,99060.86
2019-02-16T06:11:22.208Z,99055.65
2019-02-16T06:15:27.100Z,99049.58
2019-02-16T06:19:31.999Z,99050.39
2019-02-16T06:23:37.961Z,99049.89
2019-02-16T06:27:42.864Z,99046.44
2019-02-16T06:31:47.758Z,99051.18
2019-02-16T06:35:54.288Z,99060.16
2019-02-16T06:39:59.185Z,99057.16
2019-02-16T06:44:04.092Z,99065.86
2019-02-16T06:48:08.990Z,99074.14
2019-02-16T06:52:13.871Z,99083.65
2019-02-16T06:56:26.103Z,99081.90
2019-02-16T07:00:31.968Z,99087.50
2019-02-16T07:04:36.867Z,99090.45
2019-02-16T07:08:41.765Z,99087.83
2019-02-16T07:12:46.664Z,99091.02
2019-02-16T07:16:53.200Z,99090.17
2019-02-16T07:20:58.089Z,99088.88
2019-02-16T07:25:02.979Z,99084.95
2019-02-16T07:29:07.885Z,99089.26
2019-02-16T07:33:13.745Z,99095.30
2019-02-16T07:37:18.636Z,99093.17
2019-02-16T07:41:23.536Z,99095.38
2019-02-16T07:45:48.456Z,99097.95
2019-02-16T07:50:06.727Z,99096.30
2019-02-16T07:54:13.215Z,99111.48
2019-02-16T07:58:25.479Z,99111.97
2019-02-16T08:02:32.017Z,99112.92
2019-02-16T08:06:38.555Z,99116.86
2019-02-16T08:10:47.801Z,99115.17
2019-02-16T08:14:56.757Z,99121.23
2019-02-16T08:19:03.272Z,99118.23
2019-02-16T08:23:09.816Z,99119.16
2019-02-16T08:27:22.222Z,99122.20
2019-02-16T08:31:28.758Z,99114.00
2019-02-16T08:35:45.230Z,99109.22
2019-02-16T08:40:07.919Z,99100.16
2019-02-16T08:44:20.346Z,99102.70
2019-02-16T08:48:45.024Z,99099.63
2019-02-16T08:53:00.721Z,99096.14
2019-02-16T08:57:25.599Z,99092.53
2019-02-16T09:01:47.448Z,99092.67
2019-02-16T09:05:53.986Z,99083.23
2019-02-16T09:10:00.519Z,99085.55
2019-02-16T09:14:09.795Z,99077.92
2019-02-16T09:18:31.540Z,99080.23
2019-02-16T09:22:38.095Z,99079.13
2019-02-16T09:26:50.394Z,99075.41
2019-02-16T09:31:05.447Z,99073.51
2019-02-16T09:35:18.046Z,99074.18
2019-02-16T09:39:24.598Z,99073.11
2019-02-16T09:43:46.126Z,99076.83
2019-02-16T09:48:01.390Z,99077.97
2019-02-16T09:52:24.467Z,99065.57
2019-02-16T09:56:36.952Z,99068.97
2019-02-16T10:00:43.499Z,99073.17
2019-02-16T10:04:50.041Z,99076.95
2019-02-16T10:08:56.595Z,99077.20
2019-02-16T10:13:19.779Z,99077.41
2019-02-16T10:17:32.325Z,99083.25
2019-02-16T10:21:38.856Z,99086.13
2019-02-16T10:26:03.918Z,99085.06
2019-02-16T10:30:10.542Z,99084.80
2019-02-16T10:34:25.908Z,99093.34
2019-02-16T10:38:35.528Z,99090.84
2019-02-16T10:42:47.968Z,99091.03
2019-02-16T10:47:03.442Z,99099.23
2019-02-16T10:51:12.961Z,99092.97
2019-02-16T10:55:35.669Z,99089.39
2019-02-16T10:59:42.227Z,99075.74
2019-02-16T11:03:48.776Z,99076.25
2019-02-16T11:07:57.985Z,99072.92
2019-02-16T11:12:04.537Z,99073.55
2019-02-16T11:16:14.162Z,99064.30
2019-02-16T11:20:23.359Z,99062.77
2019-02-16T11:24:36.369Z,99060.77
2019-02-16T11:28:59.238Z,99057.97
2019-02-16T11:33:22.201Z,99054.31
2019-02-16T11:37:31.759Z,99045.35
2019-02-16T11:41:47.351Z,99043.39
2019-02-16T11:46:03.160Z,99059.66
2019-02-16T11:50:09.776Z,99043.17
2019-02-16T11:54:34.334Z,99036.17
2019-02-16T11:58:43.603Z,99036.66
2019-02-16T12:02:50.162Z,99027.69
2019-02-16T12:06:56.715Z,99025.38
2019-02-16T12:11:08.990Z,99029.25
2019-02-16T12:15:15.541Z,99024.28
2019-02-16T12:19:31.166Z,99020.69
2019-02-16T12:23:43.463Z,99014.86
2019-02-16T12:27:58.941Z,99016.38
2019-02-16T12:32:11.483Z,99000.14
2019-02-16T12:36:34.203Z,99005.59
2019-02-16T12:40:43.576Z,98998.58
2019-02-16T12:44:50.134Z,98999.16
2019-02-16T12:49:02.457Z,98992.83
2019-02-16T12:53:24.089Z,98988.19
2019-02-16T12:57:30.631Z,98985.00
2019-02-16T13:01:37.183Z,98978.39
2019-02-16T13:05:43.733Z,98971.83
2019-02-16T13:09:53.414Z,98976.82
2019-02-16T13:13:59.973Z,98984.45
2019-02-16T13:18:09.181Z,98981.17
2019-02-16T13:22:21.670Z,98980.05
2019-02-16T13:26:46.277Z,98979.29
2019-02-16T13:30:58.327Z,98983.83
2019-02-16T13:35:21.025Z,98969.17
2019-02-16T13:39:43.522Z,98962.30
2019-02-16T13:43:50.080Z,98964.12
2019-02-16T13:48:02.591Z,98954.75
2019-02-16T13:52:17.667Z,98957.22
2019-02-16T14:01:11.984Z,98954.88
2019-02-16T14:05:33.576Z,98956.88
2019-02-16T14:09:45.854Z,98952.44
2019-02-16T14:13:52.399Z,98946.52
2019-02-16T14:17:57.300Z,98947.61
2019-02-16T14:22:02.218Z,98946.17
2019-02-16T14:26:07.134Z,98940.08
2019-02-16T14:30:12.854Z,98944.86
2019-02-16T14:34:17.773Z,98940.08
2019-02-16T14:38:25.308Z,98934.41
2019-02-16T14:42:30.224Z,98941.44
2019-02-16T14:46:35.140Z,98937.04
2019-02-16T14:50:40.066Z,98936.22
2019-02-16T14:54:45.166Z,98933.55
2019-02-16T14:58:51.036Z,98934.50
2019-02-16T15:02:55.947Z,98942.11
2019-02-16T15:07:00.868Z,98935.25
2019-02-16T15:11:05.786Z,98931.02
2019-02-16T15:15:11.448Z,98929.38
2019-02-16T15:19:16.359Z,98928.39
2019-02-16T15:23:21.275Z,98930.38
2019-02-16T15:27:26.191Z,98928.89
2019-02-16T15:31:31.102Z,98921.21
2019-02-16T15:35:36.019Z,98917.47
2019-02-16T15:39:40.923Z,98916.89
2019-02-16T15:43:45.835Z,98914.97
2019-02-16T15:47:50.750Z,98920.14
2019-02-16T15:51:55.679Z,98917.82
2019-02-16T15:56:09.866Z,98922.08
2019-02-16T16:00:14.950Z,98920.28
2019-02-16T16:04:21.449Z,98921.48
2019-02-16T16:08:28.146Z,98920.52
2019-02-16T16:12:43.728Z,98914.92
2019-02-16T16:16:56.504Z,98916.26
2019-02-16T16:21:19.216Z,98917.17
2019-02-16T16:25:28.698Z,98919.88
2019-02-16T16:29:53.586Z,98915.55
2019-02-16T16:34:00.152Z,98919.51
2019-02-16T16:38:16.019Z,98917.41
2019-02-16T16:42:25.335Z,98917.85
2019-02-16T16:46:37.750Z,98917.88
2019-02-16T16:50:44.298Z,98918.75
2019-02-16T16:54:50.861Z,98914.30
2019-02-16T16:59:03.529Z,98914.77
2019-02-16T17:03:18.859Z,98920.54
2019-02-16T17:07:26.582Z,98921.72
2019-02-16T17:11:33.114Z,98924.08
2019-02-16T17:15:39.661Z,98929.78
2019-02-16T17:19:46.217Z,98929.67
2019-02-16T17:24:04.432Z,98930.24
2019-02-16T17:28:10.994Z,98932.38
2019-02-16T17:32:29.758Z,98927.05
2019-02-16T17:36:54.388Z,98928.14
2019-02-16T17:41:00.937Z,98929.69
2019-02-16T17:45:19.692Z,98936.58
2019-02-16T17:49:31.936Z,98926.11
2019-02-16T17:53:50.471Z,98928.09
2019-02-16T17:58:12.013Z,98933.87
2019-02-16T18:02:24.679Z,98932.74
2019-02-16T18:06:46.496Z,98934.63
2019-02-16T18:11:05.377Z,98936.57
2019-02-16T18:15:14.626Z,98933.64
2019-02-16T18:19:26.915Z,98936.34
2019-02-16T18:23:33.437Z,98933.00
2019-02-16T18:27:55.875Z,98930.09
2019-02-16T18:32:18.792Z,98932.73
2019-02-16T18:36:25.326Z,98933.24
2019-02-16T18:40:31.882Z,98929.42
2019-02-16T18:44:50.713Z,98919.92
2019-02-16T18:49:00.199Z,98922.95
2019-02-16T18:53:06.807Z,98915.22
2019-02-16T18:57:19.593Z,98914.39
2019-02-16T19:01:40.855Z,98910.92
2019-02-16T19:05:56.344Z,98906.62
2019-02-16T19:10:14.698Z,98904.93
2019-02-16T19:14:21.258Z,98914.89
2019-02-16T19:18:30.450Z,98909.70
2019-02-16T19:22:53.210Z,98914.13
2019-02-16T19:27:17.588Z,98904.13
2019-02-16T19:31:35.968Z,98906.80
2019-02-16T19:35:54.662Z,98909.45
2019-02-16T19:40:04.143Z,98909.50
2019-02-16T19:44:22.499Z,98912.13
2019-02-16T19:48:45.440Z,98911.26
2019-02-16T19:52:51.982Z,98904.77
2019-02-16T19:56:58.544Z,98909.60
2019-02-16T20:01:07.576Z,98901.88
2019-02-16T20:05:14.059Z,98904.08
2019-02-16T20:09:23.652Z,98916.23
2019-02-16T20:13:48.257Z,98913.23
2019-02-16T20:17:57.776Z,98912.38
2019-02-16T20:22:04.315Z,98913.34
2019-02-16T20:26:10.865Z,98921.54
2019-02-16T20:30:33.639Z,98912.89
2019-02-16T20:34:40.192Z,98918.53
2019-02-16T20:38:49.566Z,98915.94
2019-02-16T20:42:58.951Z,98917.65
2019-02-16T20:47:05.499Z,98924.16
2019-02-16T20:51:12.041Z,98938.00
2019-02-16T20:55:18.588Z,98940.17
2019-02-16T20:59:25.157Z,98930.66
2019-02-16T21:03:48.108Z,98938.44
2019-02-16T21:08:11.093Z,98939.30
2019-02-16T21:12:17.630Z,98936.69
2019-02-16T21:16:38.864Z,98944.93
2019-02-16T21:21:00.595Z,98944.95
2019-02-16T21:25:11.166Z,98941.48
2019-02-16T21:29:27.795Z,98937.55
2019-02-16T21:33:43.301Z,98927.16
2019-02-16T21:37:49.833Z,98928.45
2019-02-16T21:42:14.331Z,98927.19
2019-02-16T21:46:20.884Z,98927.19
2019-02-16T21:50:43.738Z,98922.85
2019-02-16T21:55:06.935Z,98926.31
2019-02-16T21:59:19.255Z,98927.13
2019-02-16T22:03:30.583Z,98925.37
2019-02-16T22:07:53.393Z,98921.91
2019-02-16T22:12:10.217Z,98924.55
2019-02-16T22:16:15.121Z,98920.20
2019-02-16T22:20:20.018Z,98921.02
2019-02-16T22:24:24.933Z,98918.42
2019-02-16T22:28:31.182Z,98911.95
2019-02-16T22:32:36.204Z,98917.12
2019-02-16T22:36:41.108Z,98916.67
2019-02-16T22:40:46.008Z,98920.58
2019-02-16T22:44:50.908Z,98917.58
2019-02-16T22:48:55.826Z,98915.84
2019-02-16T22:53:00.714Z,98921.02
2019-02-16T22:57:05.614Z,98920.58
2019-02-16T23:01:10.518Z,98924.86
2019-02-16T23:05:15.428Z,98921.80
2019-02-16T23:09:21.965Z,98920.92
2019-02-16T23:13:26.881Z,98924.34
2019-02-16T23:17:31.782Z,98925.09
2019-02-16T23:21:36.677Z,98916.02
2019-02-16T23:25:41.573Z,98913.36
2019-02-16T23:29:46.481Z,98906.94
2019-02-16T23:33:51.386Z,98904.78
2019-02-16T23:37:56.292Z,98906.94
2019-02-16T23:42:01.200Z,98897.44
2019-02-16T23:46:06.093Z,98892.61
2019-02-16T23:50:11.640Z,98891.32
2019-02-16T23:54:16.545Z,98890.47
2019-02-16T23:58:21.449Z,98882.71
